createdAt,value
2023-02-09T00:01:10.992Z,57.03
2023-02-09T00:03:39.646Z,59.57
2023-02-09T00:06:08.095Z,61.70
2023-02-09T00:08:35.952Z,61.00
2023-02-09T00:11:10.887Z,66.10
2023-02-09T00:13:37.937Z,58.03
2023-02-09T00:16:04.967Z,61.47
2023-02-09T00:18:32.423Z,58.23
2023-02-09T00:21:03.618Z,60.00
2023-02-09T00:23:31.415Z,58.27
2023-02-09T00:26:16.115Z,60.57
2023-02-09T00:28:42.722Z,53.87
2023-02-09T00:31:11.611Z,55.50
2023-02-09T00:33:38.646Z,58.87
2023-02-09T00:36:07.523Z,54.53
2023-02-09T00:38:35.081Z,59.03
2023-02-09T00:41:02.019Z,52.07
2023-02-09T00:43:28.467Z,62.13
2023-02-09T00:45:54.970Z,55.67
2023-02-09T00:48:21.493Z,55.20
2023-02-09T00:50:48.020Z,56.60
2023-02-09T00:53:14.463Z,53.60
2023-02-09T00:55:41.042Z,56.90
2023-02-09T00:58:07.487Z,51.63
2023-02-09T01:00:34.214Z,52.43
2023-02-09T01:03:00.678Z,53.47
2023-02-09T01:05:27.104Z,54.03
2023-02-09T01:07:54.062Z,55.63
2023-02-09T01:10:20.607Z,52.03
2023-02-09T01:12:47.048Z,58.03
2023-02-09T01:15:13.620Z,49.80
2023-02-09T01:17:40.512Z,46.20
2023-02-09T01:20:08.824Z,49.37
2023-02-09T01:22:38.362Z,57.90
2023-02-09T01:25:05.888Z,48.30
2023-02-09T01:27:32.453Z,51.80
2023-02-09T01:29:58.936Z,57.63
2023-02-09T01:32:25.449Z,52.97
2023-02-09T01:34:55.593Z,49.83
2023-02-09T01:37:22.118Z,48.57
2023-02-09T01:39:48.638Z,49.37
2023-02-09T01:42:17.176Z,49.10
2023-02-09T01:44:43.486Z,51.00
2023-02-09T01:47:14.738Z,49.47
2023-02-09T01:49:41.372Z,48.50
2023-02-09T01:52:12.457Z,51.33
2023-02-09T01:54:46.870Z,47.00
2023-02-09T01:57:25.354Z,40.97
2023-02-09T01:59:54.886Z,47.67
2023-02-09T02:02:22.610Z,44.77
2023-02-09T02:04:50.048Z,42.73
2023-02-09T02:07:25.674Z,49.20
2023-02-09T02:09:52.426Z,48.70
2023-02-09T02:12:18.899Z,48.90
2023-02-09T02:14:45.412Z,49.10
2023-02-09T02:17:30.798Z,47.87
2023-02-09T02:20:15.599Z,48.70
2023-02-09T02:22:59.847Z,44.50
2023-02-09T02:25:49.896Z,45.87
2023-02-09T02:28:28.622Z,43.00
2023-02-09T02:30:58.169Z,48.73
2023-02-09T02:33:52.798Z,45.63
2023-02-09T02:36:44.332Z,44.17
2023-02-09T02:39:31.224Z,46.27
2023-02-09T02:42:24.339Z,46.37
2023-02-09T02:45:06.626Z,43.87
2023-02-09T02:47:35.032Z,48.80
2023-02-09T02:50:08.474Z,40.33
2023-02-09T02:52:34.885Z,40.67
2023-02-09T02:55:06.598Z,43.37
2023-02-09T02:57:34.678Z,42.63
2023-02-09T03:00:05.377Z,42.43
2023-02-09T03:02:36.910Z,42.37
2023-02-09T03:05:05.047Z,41.63
2023-02-09T03:07:31.907Z,41.93
2023-02-09T03:09:58.794Z,40.37
2023-02-09T03:12:41.336Z,44.83
2023-02-09T03:15:17.503Z,40.23
2023-02-09T03:18:17.691Z,44.73
2023-02-09T03:20:47.535Z,41.43
2023-02-09T03:23:27.727Z,38.90
2023-02-09T03:25:56.181Z,40.70
2023-02-09T03:28:26.009Z,39.93
2023-02-09T03:30:52.950Z,36.70
2023-02-09T03:33:21.095Z,33.57
2023-02-09T03:35:51.118Z,37.30
2023-02-09T03:38:17.585Z,35.73
2023-02-09T03:40:45.213Z,36.20
2023-02-09T03:43:11.842Z,36.67
2023-02-09T03:45:38.414Z,41.37
2023-02-09T03:48:05.414Z,35.83
2023-02-09T03:50:32.794Z,31.77
2023-02-09T03:52:59.514Z,35.43
2023-02-09T03:55:26.109Z,33.50
2023-02-09T03:57:52.703Z,38.30
2023-02-09T04:00:19.452Z,30.33
2023-02-09T04:02:46.044Z,34.37
2023-02-09T04:05:12.791Z,35.50
2023-02-09T04:07:39.344Z,30.30
2023-02-09T04:10:06.439Z,30.83
2023-02-09T04:12:33.031Z,29.97
2023-02-09T04:14:59.458Z,32.90
2023-02-09T04:17:25.897Z,30.20
2023-02-09T04:19:52.464Z,27.53
2023-02-09T04:22:18.919Z,26.47
2023-02-09T04:24:45.357Z,25.00
2023-02-09T04:27:11.813Z,28.30
2023-02-09T04:29:38.390Z,31.90
2023-02-09T04:32:05.115Z,27.53
2023-02-09T04:34:31.512Z,22.30
2023-02-09T04:36:57.965Z,22.17
2023-02-09T04:39:24.407Z,26.57
2023-02-09T04:41:51.091Z,23.63
2023-02-09T04:44:17.542Z,20.77
2023-02-09T04:46:45.696Z,21.70
2023-02-09T04:49:12.700Z,23.13
2023-02-09T04:51:39.327Z,23.87
2023-02-09T04:54:05.746Z,24.50
2023-02-09T04:56:32.146Z,21.13
2023-02-09T04:59:17.208Z,21.23
2023-02-09T05:01:43.796Z,23.27
2023-02-09T05:04:10.201Z,22.97
2023-02-09T05:06:36.584Z,18.00
2023-02-09T05:09:03.005Z,16.83
2023-02-09T05:11:29.495Z,24.53
2023-02-09T05:13:55.994Z,19.27
2023-02-09T05:16:22.500Z,21.30
2023-02-09T05:18:50.575Z,17.40
2023-02-09T05:21:17.024Z,15.30
2023-02-09T05:23:43.391Z,17.13
2023-02-09T05:26:09.925Z,16.47
2023-02-09T05:28:36.645Z,17.37
2023-02-09T05:31:03.298Z,18.57
2023-02-09T05:33:29.890Z,17.63
2023-02-09T05:35:56.361Z,20.87
2023-02-09T05:38:23.004Z,18.40
2023-02-09T05:40:49.738Z,15.73
2023-02-09T05:43:16.426Z,16.80
2023-02-09T05:45:43.801Z,19.23
2023-02-09T05:48:10.289Z,17.07
2023-02-09T05:50:37.270Z,17.20
2023-02-09T05:53:03.783Z,16.63
2023-02-09T05:55:30.351Z,16.27
2023-02-09T05:57:56.777Z,14.90
2023-02-09T06:00:25.091Z,18.07
2023-02-09T06:02:51.848Z,15.57
2023-02-09T06:05:19.903Z,16.23
2023-02-09T06:07:46.470Z,14.53
2023-02-09T06:10:12.853Z,18.47
2023-02-09T06:12:41.112Z,15.33
2023-02-09T06:15:08.228Z,19.77
2023-02-09T06:17:34.648Z,15.10
2023-02-09T06:20:01.055Z,19.17
2023-02-09T06:22:29.143Z,15.90
2023-02-09T06:24:55.634Z,16.37
2023-02-09T06:27:22.169Z,18.80
2023-02-09T06:29:48.676Z,16.40
2023-02-09T06:32:15.217Z,15.57
2023-02-09T06:34:41.635Z,19.70
2023-02-09T06:37:08.054Z,18.40
2023-02-09T06:39:34.611Z,20.23
2023-02-09T06:42:01.208Z,14.77
2023-02-09T06:44:27.739Z,16.57
2023-02-09T06:46:54.618Z,16.23
2023-02-09T06:49:23.886Z,17.53
2023-02-09T06:51:50.609Z,16.00
2023-02-09T06:54:17.223Z,17.90
2023-02-09T06:56:43.648Z,16.33
2023-02-09T06:59:10.212Z,19.23
2023-02-09T07:01:37.387Z,20.60
2023-02-09T07:04:03.830Z,21.10
2023-02-09T07:06:30.466Z,16.43
2023-02-09T07:08:56.982Z,19.23
2023-02-09T07:11:23.419Z,15.13
2023-02-09T07:13:49.876Z,19.20
2023-02-09T07:16:16.786Z,22.60
2023-02-09T07:18:43.392Z,16.93
2023-02-09T07:21:12.874Z,17.13
2023-02-09T07:23:39.309Z,16.70
2023-02-09T07:26:08.469Z,17.13
2023-02-09T07:28:35.469Z,18.13
2023-02-09T07:31:05.220Z,14.33
2023-02-09T07:33:32.176Z,19.33
2023-02-09T07:35:59.214Z,21.17
2023-02-09T07:38:26.403Z,19.23
2023-02-09T07:40:53.070Z,17.40
2023-02-09T07:43:19.657Z,16.37
2023-02-09T07:45:46.674Z,17.43
2023-02-09T07:48:13.248Z,16.47
2023-02-09T07:50:39.722Z,20.63
2023-02-09T07:53:06.319Z,20.40
2023-02-09T07:55:32.802Z,22.97
2023-02-09T07:57:59.706Z,19.37
2023-02-09T08:00:26.103Z,17.50
2023-02-09T08:02:52.773Z,21.50
2023-02-09T08:05:26.120Z,19.13
2023-02-09T08:07:52.742Z,15.47
2023-02-09T08:10:19.641Z,20.17
2023-02-09T08:13:02.059Z,21.40
2023-02-09T08:15:38.250Z,18.97
2023-02-09T08:18:10.190Z,19.87
2023-02-09T08:20:37.629Z,20.23
2023-02-09T08:23:14.984Z,17.97
2023-02-09T08:25:41.475Z,19.93
2023-02-09T08:28:08.026Z,17.07
2023-02-09T08:30:35.028Z,22.20
2023-02-09T08:33:02.165Z,19.10
2023-02-09T08:35:30.573Z,18.30
2023-02-09T08:38:00.709Z,19.23
2023-02-09T08:40:27.188Z,20.60
2023-02-09T08:42:53.934Z,20.20
2023-02-09T08:45:20.603Z,19.50
2023-02-09T08:47:47.214Z,20.03
2023-02-09T08:50:13.762Z,17.80
2023-02-09T08:52:40.276Z,22.07
2023-02-09T08:55:07.068Z,17.27
2023-02-09T08:57:43.434Z,18.60
2023-02-09T09:00:11.453Z,22.87
2023-02-09T09:02:37.910Z,21.73
2023-02-09T09:05:04.633Z,19.77
2023-02-09T09:07:31.101Z,21.70
2023-02-09T09:09:57.588Z,18.80
2023-02-09T09:12:24.266Z,18.10
2023-02-09T09:14:50.977Z,21.07
2023-02-09T09:17:17.639Z,19.37
2023-02-09T09:19:44.184Z,18.83
2023-02-09T09:22:10.642Z,15.40
2023-02-09T09:24:40.660Z,19.03
2023-02-09T09:27:08.567Z,23.17
2023-02-09T09:29:36.028Z,21.63
2023-02-09T09:32:03.008Z,16.47
2023-02-09T09:34:29.556Z,17.23
2023-02-09T09:36:55.959Z,21.17
2023-02-09T09:39:22.567Z,21.50
2023-02-09T09:41:50.372Z,17.17
2023-02-09T09:44:31.067Z,18.90
2023-02-09T09:47:01.290Z,17.83
2023-02-09T09:49:29.524Z,15.77
2023-02-09T09:52:16.821Z,20.37
2023-02-09T09:54:43.901Z,16.57
2023-02-09T09:57:38.287Z,17.00
2023-02-09T10:00:20.791Z,19.13
2023-02-09T10:02:47.771Z,20.93
2023-02-09T10:05:20.408Z,19.10
2023-02-09T10:07:54.540Z,20.30
2023-02-09T10:10:46.012Z,20.43
2023-02-09T10:13:26.393Z,16.40
2023-02-09T10:15:54.830Z,14.67
2023-02-09T10:18:25.667Z,19.20
2023-02-09T10:21:06.895Z,18.57
2023-02-09T10:23:39.482Z,18.07
2023-02-09T10:26:08.892Z,17.60
2023-02-09T10:28:43.968Z,25.20
2023-02-09T10:31:16.143Z,16.70
2023-02-09T10:33:44.661Z,17.23
2023-02-09T10:36:23.836Z,21.10
2023-02-09T10:38:52.082Z,16.10
2023-02-09T10:41:19.375Z,16.27
2023-02-09T10:43:51.153Z,17.27
2023-02-09T10:46:19.150Z,18.13
2023-02-09T10:48:46.923Z,18.20
2023-02-09T10:51:16.432Z,18.67
2023-02-09T10:54:07.524Z,17.77
2023-02-09T10:56:43.430Z,18.67
2023-02-09T10:59:36.641Z,18.37
2023-02-09T11:02:03.064Z,18.93
2023-02-09T11:04:40.444Z,22.50
2023-02-09T11:07:12.745Z,19.60
2023-02-09T11:09:50.523Z,18.37
2023-02-09T11:12:16.986Z,19.30
2023-02-09T11:14:43.906Z,20.30
2023-02-09T11:17:30.853Z,15.03
2023-02-09T11:20:20.341Z,19.50
2023-02-09T11:23:06.912Z,18.93
2023-02-09T11:25:39.199Z,17.87
2023-02-09T11:28:30.278Z,15.83
2023-02-09T11:31:15.545Z,20.23
2023-02-09T11:34:00.605Z,22.57
2023-02-09T11:36:41.278Z,19.77
2023-02-09T11:39:12.178Z,18.50
2023-02-09T11:42:02.680Z,21.57
2023-02-09T11:44:35.709Z,17.10
2023-02-09T11:47:09.864Z,17.03
2023-02-09T11:49:51.040Z,17.23
2023-02-09T11:52:39.095Z,18.53
2023-02-09T11:55:23.164Z,16.53
2023-02-09T11:57:54.296Z,17.10
2023-02-09T12:00:26.895Z,18.47
2023-02-09T12:03:05.144Z,18.30
2023-02-09T12:05:31.840Z,18.50
2023-02-09T12:08:18.444Z,20.70
2023-02-09T12:11:07.975Z,23.87
2023-02-09T12:14:02.583Z,18.50
2023-02-09T12:16:34.175Z,16.33
2023-02-09T12:19:02.045Z,18.77
2023-02-09T12:21:32.518Z,15.40
2023-02-09T12:24:00.911Z,17.70
2023-02-09T12:26:37.596Z,20.33
2023-02-09T12:29:34.090Z,17.70
2023-02-09T12:32:03.549Z,16.70
2023-02-09T12:34:47.421Z,18.67
2023-02-09T12:37:13.931Z,19.47
2023-02-09T12:40:11.340Z,17.20
2023-02-09T12:42:43.213Z,16.63
2023-02-09T12:45:30.049Z,18.20
2023-02-09T12:48:07.515Z,21.67
2023-02-09T12:50:48.802Z,22.07
2023-02-09T12:53:26.344Z,22.20
2023-02-09T12:56:09.053Z,20.83
2023-02-09T12:58:45.598Z,19.00
2023-02-09T13:01:14.007Z,17.93
2023-02-09T13:04:01.405Z,17.43
2023-02-09T13:06:36.875Z,19.83
2023-02-09T13:09:08.916Z,18.57
2023-02-09T13:12:00.387Z,20.07
2023-02-09T13:14:27.229Z,22.70
2023-02-09T13:17:05.902Z,20.03
2023-02-09T13:20:09.691Z,17.93
2023-02-09T13:23:31.754Z,21.17
2023-02-09T13:26:15.784Z,23.20
2023-02-09T13:28:42.457Z,17.97
2023-02-09T13:31:33.448Z,19.90
2023-02-09T13:34:14.252Z,20.27
2023-02-09T13:36:45.564Z,18.80
2023-02-09T13:39:22.785Z,18.30
2023-02-09T13:41:50.022Z,20.87
2023-02-09T13:44:21.569Z,19.80
2023-02-09T13:46:56.712Z,18.63
2023-02-09T13:49:24.569Z,19.13
2023-02-09T13:52:09.657Z,21.07
2023-02-09T13:54:36.311Z,21.93
2023-02-09T13:57:03.514Z,22.83
2023-02-09T13:59:30.035Z,19.93
2023-02-09T14:01:56.493Z,18.20
2023-02-09T14:04:26.387Z,17.40
2023-02-09T14:07:16.243Z,18.20
2023-02-09T14:09:54.816Z,20.23
2023-02-09T14:12:55.594Z,18.57
2023-02-09T14:15:45.471Z,23.03
2023-02-09T14:18:30.736Z,22.13
2023-02-09T14:21:15.007Z,19.77
2023-02-09T14:23:44.713Z,20.30
2023-02-09T14:26:14.152Z,23.17
2023-02-09T14:28:42.194Z,21.63
2023-02-09T14:31:20.300Z,20.93
2023-02-09T14:33:51.268Z,23.03
2023-02-09T14:36:21.479Z,17.53
2023-02-09T14:38:49.391Z,20.63
2023-02-09T14:41:30.082Z,20.53
2023-02-09T14:44:20.947Z,24.67
2023-02-09T14:46:51.715Z,21.87
2023-02-09T14:49:19.400Z,22.30
2023-02-09T14:51:47.334Z,20.47
2023-02-09T14:54:24.518Z,23.97
2023-02-09T14:56:52.721Z,21.63
2023-02-09T14:59:20.511Z,16.73
2023-02-09T15:01:48.877Z,19.97
2023-02-09T15:04:15.307Z,20.57
2023-02-09T15:06:43.388Z,23.97
2023-02-09T15:09:18.060Z,20.73
2023-02-09T15:12:03.388Z,28.77
2023-02-09T15:14:35.715Z,24.23
2023-02-09T15:17:04.464Z,24.10
2023-02-09T15:19:30.966Z,22.70
2023-02-09T15:22:07.044Z,23.17
2023-02-09T15:24:36.125Z,22.57
2023-02-09T15:27:02.822Z,24.27
2023-02-09T15:29:30.489Z,24.33
2023-02-09T15:31:57.042Z,29.10
2023-02-09T15:34:23.733Z,22.53
2023-02-09T15:36:50.210Z,25.40
2023-02-09T15:39:21.224Z,23.37
2023-02-09T15:42:26.581Z,21.13
2023-02-09T15:45:12.502Z,21.50
2023-02-09T15:47:53.394Z,25.00
2023-02-09T15:50:19.960Z,24.50
2023-02-09T15:52:46.721Z,21.90
2023-02-09T15:55:19.409Z,23.53
2023-02-09T15:57:46.011Z,21.03
2023-02-09T16:00:31.158Z,21.20
2023-02-09T16:03:00.224Z,23.00
2023-02-09T16:05:28.752Z,25.43
2023-02-09T16:07:55.660Z,25.63
2023-02-09T16:10:24.600Z,24.27
2023-02-09T16:12:51.914Z,25.87
2023-02-09T16:15:23.257Z,25.97
2023-02-09T16:17:50.602Z,24.20
2023-02-09T16:20:18.433Z,22.63
2023-02-09T16:22:47.366Z,30.53
2023-02-09T16:25:25.264Z,25.10
2023-02-09T16:27:52.874Z,23.43
2023-02-09T16:30:22.301Z,21.97
2023-02-09T16:32:49.397Z,25.30
2023-02-09T16:35:17.823Z,20.67
2023-02-09T16:37:45.764Z,21.30
2023-02-09T16:40:21.447Z,24.63
2023-02-09T16:42:48.680Z,23.13
2023-02-09T16:45:15.949Z,25.70
2023-02-09T16:47:45.863Z,22.83
2023-02-09T16:50:27.452Z,21.67
2023-02-09T16:52:56.162Z,26.07
2023-02-09T16:55:24.714Z,22.40
2023-02-09T16:57:55.053Z,26.57
2023-02-09T17:00:26.869Z,29.10
2023-02-09T17:02:59.054Z,24.67
2023-02-09T17:05:31.392Z,28.47
2023-02-09T17:08:15.148Z,24.63
2023-02-09T17:10:41.604Z,25.03
2023-02-09T17:13:08.177Z,23.53
2023-02-09T17:15:40.480Z,25.00
2023-02-09T17:18:08.583Z,28.93
2023-02-09T17:20:38.265Z,23.10
2023-02-09T17:23:04.919Z,26.30
2023-02-09T17:25:31.557Z,27.60
2023-02-09T17:27:58.143Z,23.67
2023-02-09T17:30:25.564Z,27.50
2023-02-09T17:32:59.691Z,25.47
2023-02-09T17:35:52.963Z,27.73
2023-02-09T17:38:21.241Z,26.27
2023-02-09T17:40:47.669Z,26.17
2023-02-09T17:43:14.098Z,21.90
2023-02-09T17:45:41.949Z,21.47
2023-02-09T17:48:08.825Z,25.67
2023-02-09T17:50:35.229Z,24.03
2023-02-09T17:53:01.950Z,27.53
2023-02-09T17:55:30.081Z,31.70
2023-02-09T17:57:59.038Z,26.60
2023-02-09T18:00:26.765Z,25.73
2023-02-09T18:02:53.859Z,29.07
2023-02-09T18:05:25.260Z,32.90
2023-02-09T18:07:52.578Z,26.97
2023-02-09T18:10:21.542Z,28.97
2023-02-09T18:12:50.122Z,25.37
2023-02-09T18:15:23.197Z,28.03
2023-02-09T18:17:50.125Z,25.93
2023-02-09T18:20:18.982Z,27.63
2023-02-09T18:22:45.873Z,25.83
2023-02-09T18:25:25.163Z,26.07
2023-02-09T18:27:51.743Z,29.17
2023-02-09T18:30:25.623Z,25.33
2023-02-09T18:32:52.970Z,26.53
2023-02-09T18:35:25.073Z,27.73
2023-02-09T18:37:52.336Z,32.80
2023-02-09T18:40:19.440Z,25.40
2023-02-09T18:42:46.654Z,27.30
2023-02-09T18:45:14.784Z,28.63
2023-02-09T18:47:43.010Z,28.37
2023-02-09T18:50:20.490Z,29.13
2023-02-09T18:52:49.642Z,26.57
2023-02-09T18:55:16.326Z,29.47
2023-02-09T18:57:42.864Z,31.40
2023-02-09T19:00:11.257Z,32.83
2023-02-09T19:02:37.866Z,38.73
2023-02-09T19:05:05.806Z,37.00
2023-02-09T19:07:33.995Z,30.50
2023-02-09T19:10:00.962Z,31.60
2023-02-09T19:12:28.344Z,32.20
2023-02-09T19:14:55.108Z,28.90
2023-02-09T19:17:21.592Z,35.53
2023-02-09T19:19:48.505Z,35.37
2023-02-09T19:22:21.110Z,37.37
2023-02-09T19:24:50.410Z,38.60
2023-02-09T19:27:18.912Z,37.57
2023-02-09T19:29:47.250Z,43.40
2023-02-09T19:32:14.875Z,35.40
2023-02-09T19:34:43.261Z,36.53
2023-02-09T19:37:11.191Z,33.40
2023-02-09T19:39:39.948Z,35.57
2023-02-09T19:42:06.760Z,36.73
2023-02-09T19:44:33.611Z,36.40
2023-02-09T19:47:00.308Z,37.97
2023-02-09T19:49:26.970Z,38.70
2023-02-09T19:51:53.689Z,34.17
2023-02-09T19:54:20.552Z,37.27
2023-02-09T19:56:47.254Z,34.47
2023-02-09T19:59:16.957Z,35.43
2023-02-09T20:01:43.707Z,49.70
2023-02-09T20:04:10.306Z,38.33
2023-02-09T20:06:36.778Z,42.67
2023-02-09T20:09:03.450Z,35.27
2023-02-09T20:11:29.946Z,42.87
2023-02-09T20:13:56.554Z,43.37
2023-02-09T20:16:25.274Z,38.63
2023-02-09T20:18:52.538Z,37.73
2023-02-09T20:21:20.866Z,47.57
2023-02-09T20:23:48.022Z,36.40
2023-02-09T20:26:17.326Z,45.73
2023-02-09T20:28:44.287Z,44.57
2023-02-09T20:31:11.310Z,40.30
2023-02-09T20:33:39.168Z,42.03
2023-02-09T20:36:07.321Z,47.03
2023-02-09T20:38:36.316Z,43.87
2023-02-09T20:41:03.419Z,49.40
2023-02-09T20:44:05.520Z,40.93
2023-02-09T20:46:52.122Z,47.70
2023-02-09T20:49:18.732Z,45.70
2023-02-09T20:51:46.349Z,44.60
2023-02-09T20:54:14.358Z,45.90
2023-02-09T20:56:41.119Z,50.47
2023-02-09T20:59:08.204Z,43.53
2023-02-09T21:01:37.408Z,48.03
2023-02-09T21:04:06.420Z,45.23
2023-02-09T21:06:33.949Z,46.70
2023-02-09T21:09:00.513Z,51.87
2023-02-09T21:11:27.133Z,53.27
2023-02-09T21:13:54.959Z,50.90
2023-02-09T21:16:21.838Z,53.83
2023-02-09T21:18:48.329Z,52.97
2023-02-09T21:21:16.517Z,52.17
2023-02-09T21:23:44.181Z,48.53
2023-02-09T21:26:14.312Z,58.10
2023-02-09T21:28:40.807Z,49.67
2023-02-09T21:31:12.223Z,54.67
2023-02-09T21:33:40.006Z,52.20
2023-02-09T21:36:08.074Z,53.50
2023-02-09T21:38:37.251Z,50.60
2023-02-09T21:41:35.739Z,52.07
2023-02-09T21:44:02.846Z,49.27
2023-02-09T21:46:29.425Z,53.33
2023-02-09T21:48:56.301Z,55.47
2023-02-09T21:51:22.936Z,53.13
2023-02-09T21:53:49.429Z,54.97
2023-02-09T21:56:16.274Z,58.60
2023-02-09T21:58:42.914Z,58.30
2023-02-09T22:01:12.264Z,58.97
2023-02-09T22:03:39.267Z,46.67
2023-02-09T22:06:06.814Z,50.60
2023-02-09T22:08:33.365Z,55.23
2023-02-09T22:11:01.692Z,53.43
2023-02-09T22:13:28.901Z,46.57
2023-02-09T22:15:55.806Z,52.00
2023-02-09T22:18:22.624Z,50.73
2023-02-09T22:20:50.786Z,51.53
2023-02-09T22:23:18.490Z,43.77
2023-02-09T22:25:45.098Z,46.03
2023-02-09T22:28:12.083Z,48.27
2023-02-09T22:30:38.606Z,47.33
2023-02-09T22:33:05.957Z,55.70
2023-02-09T22:35:32.493Z,45.47
2023-02-09T22:37:58.944Z,44.53
2023-02-09T22:40:25.397Z,49.60
2023-02-09T22:42:52.163Z,49.77
2023-02-09T22:45:18.872Z,49.03
2023-02-09T22:47:45.298Z,43.43
2023-02-09T22:50:12.059Z,52.00
2023-02-09T22:52:38.564Z,50.50
2023-02-09T22:55:05.409Z,46.67
2023-02-09T22:57:31.850Z,45.00
2023-02-09T22:59:58.276Z,48.13
2023-02-09T23:02:25.036Z,41.40
2023-02-09T23:04:51.449Z,48.80
2023-02-09T23:07:17.901Z,43.57
2023-02-09T23:09:44.443Z,54.37
2023-02-09T23:12:10.870Z,48.30
2023-02-09T23:14:37.328Z,47.50
2023-02-09T23:17:03.766Z,44.90
2023-02-09T23:19:30.329Z,41.50
2023-02-09T23:21:56.754Z,47.47
2023-02-09T23:24:24.582Z,44.13
2023-02-09T23:26:51.633Z,51.90
2023-02-09T23:29:18.831Z,48.50
2023-02-09T23:31:46.067Z,46.23
2023-02-09T23:34:21.132Z,50.63
2023-02-09T23:36:47.613Z,41.47
2023-02-09T23:39:17.447Z,47.03
2023-02-09T23:41:43.933Z,43.00
2023-02-09T23:44:10.987Z,54.83
2023-02-09T23:46:37.446Z,43.87
2023-02-09T23:49:03.994Z,47.80
2023-02-09T23:51:32.755Z,43.70
2023-02-09T23:54:01.762Z,45.93
2023-02-09T23:56:29.949Z,47.57
2023-02-09T23:58:56.461Z,48.77
